QTR8095 LEZG-VGHS
Flight info
| Callsign | QTR8095 |
|---|---|
| Flight time | N/A |
| Altitude | 32000 |
| Route | GRAUS2H GRAUS DCT PIVUS N870 DIBER DCT ZETCO DCT MOULE DCT OKBIS DCT XAMIT/N0485F330 DCT DIXUM DCT TORTO DCT ETIDA Q7 IVGOT L744 UDROS UM859 KARDE UN644 ROLIN N644 LAGAS M747 SUBUT T923 ERLEV M11 RODAR A909 TUNEK/N0484F350 A909 NINOP B475 DAVET P173 TAPIS L509 SULOM A466 ASARI L509 GUGIP B345 KEVOD J71 PPT A201 RAJ G463 IDLOX DCT |
| Aircraft | B77L/H-SDE1E2E3FGHIJ2J3J4J5M1RWXY/LB1D1 |
Departure
| Time | N/A |
|---|---|
| Airport | Zaragoza Airport (LEZG) |
Arrival
| Time | 2026-05-08 14:46 |
|---|---|
| Airport | Hazrat Shahjalal International Airport (VGHS) |
| Time | Latitude | Longitude | Altitude | Speed | Heading |
|---|---|---|---|---|---|
| 2026-05-08 14:31 | 23.49697 | 90.74236 | 23880 ft | 489 kts | 324° |
| 2026-05-08 14:31 | 23.52653 | 90.72293 | 23881 ft | 491 kts | 324° |
| 2026-05-08 14:31 | 23.55536 | 90.70378 | 23876 ft | 492 kts | 323° |
| 2026-05-08 14:32 | 23.61364 | 90.66470 | 23863 ft | 492 kts | 323° |
| 2026-05-08 14:32 | 23.64271 | 90.64513 | 23872 ft | 491 kts | 323° |
| 2026-05-08 14:32 | 23.67180 | 90.62555 | 23877 ft | 491 kts | 323° |
| 2026-05-08 14:32 | 23.70081 | 90.60602 | 23877 ft | 490 kts | 323° |
| 2026-05-08 14:33 | 23.72977 | 90.58651 | 23879 ft | 489 kts | 323° |
| 2026-05-08 14:33 | 23.75878 | 90.56697 | 23900 ft | 489 kts | 323° |
| 2026-05-08 14:33 | 23.78768 | 90.54747 | 23886 ft | 488 kts | 323° |
| 2026-05-08 14:33 | 23.81657 | 90.52796 | 23877 ft | 488 kts | 323° |
| 2026-05-08 14:34 | 23.84540 | 90.50848 | 23879 ft | 488 kts | 323° |
| 2026-05-08 14:34 | 23.87421 | 90.48904 | 23879 ft | 487 kts | 323° |
| 2026-05-08 14:34 | 23.90340 | 90.46999 | 23579 ft | 489 kts | 326° |
| 2026-05-08 14:34 | 23.93290 | 90.45180 | 22832 ft | 482 kts | 326° |
| 2026-05-08 14:35 | 23.96147 | 90.43410 | 22067 ft | 456 kts | 326° |
| 2026-05-08 14:35 | 23.98824 | 90.41755 | 21141 ft | 431 kts | 326° |
| 2026-05-08 14:35 | 24.01372 | 90.40172 | 20127 ft | 413 kts | 326° |
| 2026-05-08 14:35 | 24.03820 | 90.38643 | 19150 ft | 398 kts | 326° |
| 2026-05-08 14:36 | 24.06184 | 90.37150 | 18212 ft | 385 kts | 326° |
| 2026-05-08 14:36 | 24.08456 | 90.35697 | 17154 ft | 373 kts | 326° |
| 2026-05-08 14:36 | 24.10669 | 90.34269 | 16119 ft | 362 kts | 326° |
| 2026-05-08 14:36 | 24.12805 | 90.32879 | 15117 ft | 353 kts | 326° |
| 2026-05-08 14:37 | 24.14862 | 90.31529 | 14163 ft | 345 kts | 326° |
| 2026-05-08 14:37 | 24.16888 | 90.30159 | 13149 ft | 336 kts | 322° |
| 2026-05-08 14:37 | 24.18516 | 90.28426 | 12088 ft | 325 kts | 302° |
| 2026-05-08 14:37 | 24.19442 | 90.26229 | 11082 ft | 315 kts | 282° |
| 2026-05-08 14:38 | 24.19510 | 90.23861 | 10098 ft | 309 kts | 259° |
| 2026-05-08 14:38 | 24.18728 | 90.21697 | 9087 ft | 307 kts | 242° |
| 2026-05-08 14:38 | 24.17556 | 90.19756 | 8078 ft | 303 kts | 237° |
| 2026-05-08 14:38 | 24.16314 | 90.17904 | 7092 ft | 300 kts | 232° |
| 2026-05-08 14:39 | 24.14716 | 90.16478 | 6215 ft | 297 kts | 208° |
| 2026-05-08 14:39 | 24.12750 | 90.15884 | 5432 ft | 291 kts | 185° |
| 2026-05-08 14:39 | 24.10775 | 90.16105 | 4751 ft | 283 kts | 167° |
| 2026-05-08 14:39 | 24.09005 | 90.16924 | 4215 ft | 268 kts | 146° |
| 2026-05-08 14:40 | 24.07662 | 90.18193 | 4014 ft | 243 kts | 137° |
| 2026-05-08 14:40 | 24.06522 | 90.19405 | 3974 ft | 221 kts | 137° |
| 2026-05-08 14:40 | 24.05455 | 90.20544 | 4016 ft | 213 kts | 137° |
| 2026-05-08 14:40 | 24.04387 | 90.21681 | 4038 ft | 214 kts | 137° |
| 2026-05-08 14:41 | 24.03324 | 90.22809 | 3990 ft | 210 kts | 138° |
| 2026-05-08 14:41 | 24.02283 | 90.23908 | 3984 ft | 208 kts | 138° |
| 2026-05-08 14:41 | 24.01238 | 90.25009 | 3990 ft | 210 kts | 138° |
| 2026-05-08 14:41 | 24.00177 | 90.26121 | 3995 ft | 212 kts | 138° |
| 2026-05-08 14:42 | 23.99110 | 90.27237 | 3922 ft | 213 kts | 138° |
| 2026-05-08 14:42 | 23.98028 | 90.28367 | 3632 ft | 215 kts | 137° |
| 2026-05-08 14:42 | 23.96962 | 90.29480 | 3318 ft | 209 kts | 137° |
| 2026-05-08 14:42 | 23.95897 | 90.30516 | 2984 ft | 201 kts | 142° |
| 2026-05-08 14:43 | 23.94792 | 90.31431 | 2653 ft | 195 kts | 144° |
| 2026-05-08 14:43 | 23.93736 | 90.32271 | 2256 ft | 180 kts | 144° |
| 2026-05-08 14:43 | 23.92769 | 90.33041 | 2031 ft | 171 kts | 143° |
| 2026-05-08 14:43 | 23.91826 | 90.33798 | 1909 ft | 164 kts | 143° |
| 2026-05-08 14:44 | 23.90945 | 90.34494 | 1537 ft | 152 kts | 145° |
| 2026-05-08 14:44 | 23.90083 | 90.35149 | 1134 ft | 148 kts | 142° |
| 2026-05-08 14:44 | 23.89269 | 90.35860 | 933 ft | 153 kts | 142° |
| 2026-05-08 14:44 | 23.88396 | 90.36527 | 748 ft | 155 kts | 148° |
| 2026-05-08 14:45 | 23.87538 | 90.37221 | 549 ft | 152 kts | 140° |
| 2026-05-08 14:45 | 23.86700 | 90.37907 | 334 ft | 147 kts | 146° |
| 2026-05-08 14:45 | 23.85883 | 90.38549 | 152 ft | 143 kts | 145° |
| 2026-05-08 14:45 | 23.85603 | 90.38772 | 95 ft | 141 kts | 145° |
| 2026-05-08 14:46 | 23.85035 | 90.39222 | 38 ft | 130 kts | 146° |
| 2026-05-08 14:46 | 23.84526 | 90.39626 | 41 ft | 35 kts | 143° |
| 2026-05-08 14:46 | 23.84333 | 90.39779 | 40 ft | 33 kts | 143° |
| 2026-05-08 14:46 | 23.84155 | 90.39933 | 40 ft | 32 kts | 136° |
| 2026-05-08 14:47 | 23.84043 | 90.40095 | 41 ft | 30 kts | 120° |
| 2026-05-08 14:47 | 23.83997 | 90.40315 | 41 ft | 30 kts | 87° |
| 2026-05-08 14:47 | 23.84084 | 90.40514 | 41 ft | 30 kts | 53° |
| 2026-05-08 14:47 | 23.84162 | 90.40578 | 41 ft | 14 kts | 353° |
| 2026-05-08 14:48 | 23.84252 | 90.40512 | 38 ft | 22 kts | 323° |
| 2026-05-08 14:48 | 23.84374 | 90.40417 | 40 ft | 22 kts | 326° |
| 2026-05-08 14:48 | 23.84500 | 90.40323 | 39 ft | 22 kts | 326° |
| 2026-05-08 14:48 | 23.84621 | 90.40225 | 40 ft | 22 kts | 322° |
| 2026-05-08 14:49 | 23.84740 | 90.40124 | 40 ft | 22 kts | 322° |
| 2026-05-08 14:49 | 23.84866 | 90.40025 | 41 ft | 25 kts | 324° |
| 2026-05-08 14:49 | 23.85008 | 90.39913 | 41 ft | 25 kts | 324° |
| 2026-05-08 14:49 | 23.85150 | 90.39802 | 41 ft | 25 kts | 324° |
| 2026-05-08 14:50 | 23.85290 | 90.39688 | 41 ft | 25 kts | 323° |
| 2026-05-08 14:50 | 23.85417 | 90.39595 | 41 ft | 14 kts | 343° |
| 2026-05-08 14:50 | 23.85495 | 90.39649 | 41 ft | 14 kts | 59° |
| 2026-05-08 14:50 | 23.85526 | 90.39697 | 41 ft | 3 kts | 41° |
| 2026-05-08 14:51 | 23.85553 | 90.39705 | 41 ft | 8 kts | 0° |
| 2026-05-08 14:51 | 23.85574 | 90.39653 | 41 ft | 9 kts | 242° |
| 2026-05-08 14:51 | 23.85546 | 90.39609 | 41 ft | 1 kts | 234° |
| 2026-05-08 14:51 | 23.85544 | 90.39606 | 41 ft | 0 kts | 234° |